Time;durP1;ratioP1;P1;durP2;ratioP2;P2;SDS_P1;SDS_P2;PMS_P1;PMS_P2;Temp;Humidity;BMP_temperature;BMP_pressure;BME280_temperature;BME280_humidity;BME280_pressure;Samples;Min_cycle;Max_cycle;Signal;HPM_P1;HPM_P2
2023/06/28 00:01:39;;;;;;;4.15;2.60;;;;;15.40;96542.00;;;;8221055;28;20682;-64
2023/06/28 00:05:47;;;;;;;5.25;2.83;;;;;15.20;96533.00;;;;8221641;28;20206;-62
2023/06/28 00:09:51;;;;;;;3.50;2.80;;;;;15.00;96531.00;;;;8218990;28;20227;-63
2023/06/28 00:13:54;;;;;;;5.68;3.50;;;;;14.90;96539.00;;;;8209572;28;20199;-64
2023/06/28 00:17:58;;;;;;;5.63;3.60;;;;;14.80;96538.00;;;;8230505;28;20217;-64
2023/06/28 00:22:01;;;;;;;8.95;3.60;;;;;14.80;96528.00;;;;8224815;28;20199;-65
2023/06/28 00:26:06;;;;;;;5.82;3.80;;;;;14.90;96553.00;;;;8219823;28;20257;-63
2023/06/28 00:30:10;;;;;;;5.57;3.50;;;;;14.90;96534.00;;;;8220453;28;20236;-64
2023/06/28 00:34:13;;;;;;;6.72;3.55;;;;;14.80;96543.00;;;;8214056;28;20231;-65
2023/06/28 00:38:18;;;;;;;5.07;3.55;;;;;14.80;96552.00;;;;8225891;28;20208;-65
2023/06/28 00:42:23;;;;;;;5.75;3.70;;;;;14.70;96559.00;;;;8218820;28;20810;-64
2023/06/28 00:46:29;;;;;;;6.10;3.38;;;;;14.70;96563.00;;;;8219174;28;20294;-64
2023/06/28 00:50:34;;;;;;;5.93;3.50;;;;;14.70;96568.00;;;;8219763;28;20231;-64
2023/06/28 00:54:40;;;;;;;6.47;3.88;;;;;14.70;96568.00;;;;8218953;28;20201;-63
2023/06/28 00:58:45;;;;;;;8.45;3.85;;;;;14.70;96595.00;;;;8222120;28;20214;-62
2023/06/28 01:02:50;;;;;;;5.20;3.42;;;;;14.70;96585.00;;;;8223526;28;20234;-60
2023/06/28 01:06:59;;;;;;;8.98;4.03;;;;;14.70;96573.00;;;;8229615;28;20243;-61
2023/06/28 01:11:04;;;;;;;8.15;4.30;;;;;14.70;96563.00;;;;8221464;28;20755;-60
2023/06/28 01:15:10;;;;;;;5.38;4.30;;;;;14.60;96556.00;;;;8220746;28;20213;-61
2023/06/28 01:19:14;;;;;;;6.85;3.78;;;;;14.60;96550.00;;;;8229117;28;20223;-62
2023/06/28 01:23:21;;;;;;;10.25;4.70;;;;;14.60;96550.00;;;;8225701;28;20195;-62
2023/06/28 01:27:25;;;;;;;5.00;4.10;;;;;14.70;96534.00;;;;8232025;28;20284;-63
2023/06/28 01:31:30;;;;;;;5.65;3.90;;;;;14.60;96536.00;;;;8230049;28;20235;-64
2023/06/28 01:35:37;;;;;;;5.60;4.07;;;;;14.60;96528.00;;;;8236540;28;20238;-65
2023/06/28 01:39:42;;;;;;;7.30;4.00;;;;;14.50;96523.00;;;;8235635;28;20191;-65
2023/06/28 01:43:48;;;;;;;4.50;3.65;;;;;14.50;96526.00;;;;8238697;28;20302;-65
2023/06/28 01:47:54;;;;;;;5.65;4.18;;;;;14.40;96533.00;;;;8232780;28;20202;-66
2023/06/28 01:51:57;;;;;;;8.65;4.63;;;;;14.40;96517.00;;;;8235076;28;20284;-66
2023/06/28 01:56:07;;;;;;;10.02;4.25;;;;;14.40;96520.00;;;;8231806;28;20198;-66
2023/06/28 02:00:11;;;;;;;6.65;3.80;;;;;14.30;96533.00;;;;8238090;28;20203;-66
2023/06/28 02:04:15;;;;;;;6.75;4.30;;;;;14.30;96522.00;;;;8242198;28;20339;-66
2023/06/28 02:08:18;;;;;;;5.25;4.22;;;;;14.20;96523.00;;;;8240444;28;20219;-65
2023/06/28 02:12:27;;;;;;;6.13;4.40;;;;;14.20;96523.00;;;;8242759;28;20276;-64
2023/06/28 02:16:31;;;;;;;5.43;4.07;;;;;14.10;96519.00;;;;8231033;28;20314;-66
2023/06/28 02:20:35;;;;;;;7.45;3.25;;;;;14.00;96516.00;;;;8224598;28;20260;-66
2023/06/28 02:24:38;;;;;;;4.07;3.70;;;;;13.90;96514.00;;;;8225771;28;20206;-66
2023/06/28 02:28:42;;;;;;;6.90;3.85;;;;;13.90;96518.00;;;;8223801;28;20677;-66
2023/06/28 02:32:45;;;;;;;6.95;3.80;;;;;13.90;96515.00;;;;8222209;28;20247;-66
2023/06/28 02:36:52;;;;;;;4.63;4.05;;;;;13.90;96516.00;;;;8227516;28;20880;-66
2023/06/28 02:40:57;;;;;;;7.30;4.60;;;;;13.90;96518.00;;;;8223089;28;20214;-66
2023/06/28 02:45:04;;;;;;;5.43;3.97;;;;;14.00;96521.00;;;;8223908;28;20256;-66
2023/06/28 02:49:08;;;;;;;6.13;4.15;;;;;14.00;96528.00;;;;8221701;28;20637;-66
2023/06/28 02:53:12;;;;;;;5.38;4.20;;;;;13.90;96527.00;;;;8224602;28;20201;-67
2023/06/28 02:57:15;;;;;;;5.68;4.38;;;;;13.90;96526.00;;;;8223292;28;20706;-66
2023/06/28 03:06:41;;;;;;;8.52;4.15;;;;;13.90;96523.00;;;;8297468;28;20236;-96
2023/06/28 03:57:00;;;;;;;6.20;4.70;;;;;14.60;96565.00;;;;8220955;23;20229;-65
2023/06/28 04:01:05;;;;;;;5.45;4.50;;;;;14.70;96573.00;;;;8251066;28;20216;-68
2023/06/28 04:05:09;;;;;;;5.70;4.15;;;;;14.80;96573.00;;;;8313292;28;20233;-67
2023/06/28 04:09:12;;;;;;;6.70;5.18;;;;;15.00;96571.00;;;;8306366;28;20281;-67
2023/06/28 04:13:18;;;;;;;4.40;4.00;;;;;15.30;96574.00;;;;8310131;28;20312;-68
2023/06/28 04:17:24;;;;;;;3.90;3.50;;;;;15.40;96573.00;;;;8314886;28;20211;-67
2023/06/28 04:21:31;;;;;;;3.97;3.40;;;;;15.50;96569.00;;;;8319783;28;20257;-67
2023/06/28 04:25:34;;;;;;;6.10;3.88;;;;;15.40;96574.00;;;;8306190;28;20233;-67
2023/06/28 04:29:37;;;;;;;4.88;3.55;;;;;15.40;96576.00;;;;8319396;28;20223;-68
2023/06/28 04:33:42;;;;;;;6.53;4.10;;;;;15.40;96580.00;;;;8300465;28;20288;-67
2023/06/28 04:37:47;;;;;;;5.15;4.03;;;;;15.50;96584.00;;;;8307540;28;20204;-67
2023/06/28 04:41:51;;;;;;;5.53;4.07;;;;;15.50;96585.00;;;;8320469;28;20562;-67
2023/06/28 04:45:55;;;;;;;4.50;4.07;;;;;15.50;96582.00;;;;8322401;28;20203;-67
2023/06/28 04:50:02;;;;;;;4.10;3.80;;;;;15.70;96578.00;;;;8312972;28;20223;-67
2023/06/28 04:54:06;;;;;;;5.88;4.38;;;;;15.70;96579.00;;;;8299824;28;20205;-67
2023/06/28 04:58:09;;;;;;;5.95;3.83;;;;;15.70;96577.00;;;;8312562;28;20198;-66
2023/06/28 05:02:17;;;;;;;6.47;3.90;;;;;15.70;96581.00;;;;8316494;28;20248;-68
2023/06/28 05:06:24;;;;;;;5.72;3.95;;;;;15.60;96572.00;;;;8293110;28;20607;-67
2023/06/28 05:10:29;;;;;;;6.82;3.88;;;;;15.50;96573.00;;;;8311514;28;20714;-66
2023/06/28 05:14:33;;;;;;;6.63;4.28;;;;;15.70;96579.00;;;;8312442;28;20690;-66
2023/06/28 05:18:38;;;;;;;3.63;3.33;;;;;16.00;96565.00;;;;8305041;28;20291;-67
2023/06/28 05:22:49;;;;;;;5.03;3.78;;;;;16.30;96569.00;;;;8306297;28;20228;-66
2023/06/28 05:26:55;;;;;;;4.05;3.58;;;;;16.50;96574.00;;;;8317444;28;20205;-67
2023/06/28 05:30:58;;;;;;;4.38;3.95;;;;;16.80;96570.00;;;;8310558;28;20316;-65
2023/06/28 05:35:05;;;;;;;4.15;3.20;;;;;17.10;96584.00;;;;8306918;28;20198;-66
2023/06/28 05:39:10;;;;;;;6.15;3.67;;;;;17.60;96572.00;;;;8308656;28;20286;-66
2023/06/28 05:43:15;;;;;;;3.40;3.00;;;;;18.20;96582.00;;;;8310137;28;20205;-66
2023/06/28 05:47:20;;;;;;;4.78;3.00;;;;;18.90;96587.00;;;;8310055;28;20697;-67
2023/06/28 05:51:23;;;;;;;3.30;3.10;;;;;19.70;96590.00;;;;8304937;28;20935;-67
2023/06/28 05:55:28;;;;;;;4.65;3.17;;;;;20.10;96600.00;;;;8309897;28;21022;-67
2023/06/28 05:59:34;;;;;;;5.50;2.90;;;;;20.70;96594.00;;;;8313443;28;20960;-66
2023/06/28 06:03:38;;;;;;;3.63;3.30;;;;;20.60;96596.00;;;;8306837;28;20304;-65
2023/06/28 06:07:43;;;;;;;4.72;3.35;;;;;20.60;96591.00;;;;8307269;28;20707;-63
2023/06/28 06:11:50;;;;;;;3.78;2.70;;;;;20.30;96592.00;;;;8305532;28;20229;-65
2023/06/28 06:15:57;;;;;;;3.03;2.78;;;;;20.30;96600.00;;;;8303259;28;20683;-66
2023/06/28 06:20:02;;;;;;;3.22;2.90;;;;;20.10;96597.00;;;;8305200;28;20682;-65
2023/06/28 06:24:07;;;;;;;4.03;2.78;;;;;19.60;96590.00;;;;8311535;28;20293;-65
2023/06/28 06:28:15;;;;;;;3.30;3.00;;;;;19.80;96593.00;;;;8303375;28;20264;-64
2023/06/28 06:32:19;;;;;;;4.22;3.00;;;;;20.40;96599.00;;;;8306305;28;20250;-63
2023/06/28 06:36:22;;;;;;;4.28;2.97;;;;;21.00;96599.00;;;;8302105;28;20198;-61
2023/06/28 06:40:25;;;;;;;3.38;2.72;;;;;21.30;96600.00;;;;8302920;28;20482;-63
2023/06/28 06:44:32;;;;;;;3.30;2.47;;;;;20.70;96592.00;;;;8333042;28;20202;-61
2023/06/28 06:48:40;;;;;;;2.75;2.55;;;;;20.80;96600.00;;;;8333697;28;20645;-60
2023/06/28 06:52:43;;;;;;;3.80;2.78;;;;;20.60;96597.00;;;;8332125;28;20316;-61
2023/06/28 06:56:46;;;;;;;4.85;2.70;;;;;20.60;96593.00;;;;8333288;28;20204;-61
2023/06/28 07:00:51;;;;;;;3.05;2.67;;;;;21.50;96596.00;;;;8332888;28;20193;-61
2023/06/28 07:04:54;;;;;;;2.95;2.25;;;;;22.20;96591.00;;;;8332972;28;20271;-60
2023/06/28 07:08:59;;;;;;;3.50;2.60;;;;;22.90;96592.00;;;;8332399;28;20228;-60
2023/06/28 07:13:04;;;;;;;3.13;2.30;;;;;23.20;96606.00;;;;8332351;28;20221;-60
2023/06/28 07:17:11;;;;;;;4.38;2.50;;;;;23.20;96602.00;;;;8331508;28;20280;-60
2023/06/28 07:21:15;;;;;;;3.55;2.53;;;;;22.90;96603.00;;;;8315802;28;20201;-60
2023/06/28 07:25:18;;;;;;;4.38;2.83;;;;;22.30;96604.00;;;;8329537;28;20690;-60
2023/06/28 07:29:24;;;;;;;4.57;2.60;;;;;22.60;96607.00;;;;8330343;28;20243;-60
2023/06/28 07:33:28;;;;;;;5.97;2.83;;;;;23.60;96602.00;;;;8331964;28;20221;-60
2023/06/28 07:37:32;;;;;;;3.75;2.40;;;;;24.60;96610.00;;;;8330874;28;20235;-60
2023/06/28 07:41:35;;;;;;;4.63;2.53;;;;;25.20;96605.00;;;;8332189;28;20288;-60
2023/06/28 07:45:38;;;;;;;3.03;2.17;;;;;25.70;96605.00;;;;8327934;28;20236;-61
2023/06/28 07:49:47;;;;;;;3.13;2.20;;;;;26.10;96607.00;;;;8330424;28;20235;-60
2023/06/28 07:53:52;;;;;;;2.35;2.15;;;;;24.90;96598.00;;;;8329406;28;20225;-60
2023/06/28 07:57:57;;;;;;;5.13;2.70;;;;;24.10;96612.00;;;;8331150;28;20204;-60
2023/06/28 08:02:01;;;;;;;3.83;2.22;;;;;25.10;96605.00;;;;8331833;28;20251;-60
2023/06/28 08:06:09;;;;;;;2.28;2.08;;;;;27.00;96605.00;;;;8328464;28;20201;-60
2023/06/28 08:10:17;;;;;;;2.53;2.30;;;;;28.10;96609.00;;;;8330706;28;20197;-60
2023/06/28 08:14:22;;;;;;;3.17;2.17;;;;;28.50;96609.00;;;;8331637;28;20696;-59
2023/06/28 08:18:28;;;;;;;2.97;2.20;;;;;28.30;96606.00;;;;8330010;28;20232;-60
2023/06/28 08:22:34;;;;;;;4.57;2.13;;;;;26.90;96599.00;;;;8330289;28;20638;-59
2023/06/28 08:26:37;;;;;;;3.13;2.83;;;;;26.70;96597.00;;;;8331934;28;20293;-58
2023/06/28 08:30:44;;;;;;;2.83;2.20;;;;;27.50;96596.00;;;;8330863;28;20193;-58
2023/06/28 08:34:48;;;;;;;2.97;2.25;;;;;28.10;96600.00;;;;8330183;28;20229;-59
2023/06/28 08:38:55;;;;;;;2.03;1.90;;;;;28.50;96595.00;;;;8331851;28;20193;-58
2023/06/28 08:43:02;;;;;;;6.50;2.05;;;;;29.70;96592.00;;;;8313412;28;20304;-58
2023/06/28 08:47:07;;;;;;;2.53;1.85;;;;;31.00;96593.00;;;;8331504;28;20251;-58
2023/06/28 08:51:11;;;;;;;4.80;2.00;;;;;30.60;96599.00;;;;8330481;28;20251;-59
2023/06/28 08:55:16;;;;;;;4.35;1.95;;;;;29.00;96592.00;;;;8330279;28;20197;-59
2023/06/28 08:59:21;;;;;;;3.92;2.08;;;;;28.00;96586.00;;;;8330342;28;20232;-58
2023/06/28 09:03:26;;;;;;;3.33;2.20;;;;;28.50;96586.00;;;;8330251;28;20221;-58
2023/06/28 09:07:34;;;;;;;1.92;1.80;;;;;27.60;96595.00;;;;8313414;28;20194;-59
2023/06/28 09:11:42;;;;;;;4.20;1.85;;;;;27.40;96585.00;;;;8330115;28;20217;-60
2023/06/28 09:15:46;;;;;;;2.72;1.90;;;;;28.80;96582.00;;;;8330467;28;20631;-60
2023/06/28 09:19:53;;;;;;;6.03;2.15;;;;;29.50;96574.00;;;;8332101;28;20289;-60
2023/06/28 09:23:59;;;;;;;2.15;2.00;;;;;29.80;96572.00;;;;8335888;28;20285;-60
2023/06/28 09:28:06;;;;;;;3.53;1.80;;;;;29.30;96573.00;;;;8335700;28;20288;-60
2023/06/28 09:32:10;;;;;;;3.63;1.95;;;;;29.40;96573.00;;;;8335585;28;20316;-61
2023/06/28 09:36:13;;;;;;;2.45;1.80;;;;;30.40;96572.00;;;;8335572;28;20196;-60
2023/06/28 09:40:17;;;;;;;2.20;1.95;;;;;29.90;96567.00;;;;8335801;28;20589;-60
2023/06/28 09:44:31;;;;;;;3.63;2.10;;;;;28.70;96574.00;;;;8336357;28;20630;-60
2023/06/28 09:48:37;;;;;;;2.90;2.30;;;;;28.30;96567.00;;;;8335376;28;20178;-60
2023/06/28 09:52:43;;;;;;;3.92;2.08;;;;;27.90;96565.00;;;;8334820;28;20260;-62
2023/06/28 09:56:49;;;;;;;2.92;2.28;;;;;28.00;96560.00;;;;8335043;28;20248;-62
2023/06/28 10:00:53;;;;;;;4.22;2.40;;;;;29.30;96557.00;;;;8334572;28;20283;-60
2023/06/28 10:04:58;;;;;;;3.95;1.92;;;;;29.80;96557.00;;;;8334640;28;20296;-60
2023/06/28 10:09:02;;;;;;;5.88;1.92;;;;;30.90;96554.00;;;;8334820;28;20295;-60
2023/06/28 10:13:08;;;;;;;2.65;2.03;;;;;30.40;96555.00;;;;8334341;28;20228;-60
2023/06/28 10:17:17;;;;;;;6.28;2.28;;;;;29.80;96557.00;;;;8334503;28;20201;-60
2023/06/28 10:21:24;;;;;;;3.42;1.75;;;;;30.80;96549.00;;;;8329613;28;20210;-61
2023/06/28 10:25:35;;;;;;;3.50;1.80;;;;;30.80;96558.00;;;;8331984;28;20197;-60
2023/06/28 10:29:40;;;;;;;3.17;1.70;;;;;29.60;96552.00;;;;8334022;28;20284;-60
2023/06/28 10:33:46;;;;;;;2.22;1.63;;;;;29.40;96553.00;;;;8331756;28;20801;-60
2023/06/28 10:37:50;;;;;;;3.65;1.83;;;;;29.40;96548.00;;;;8331857;28;20609;-60
2023/06/28 10:41:56;;;;;;;2.10;1.92;;;;;28.60;96553.00;;;;8334131;28;20311;-60
2023/06/28 10:46:00;;;;;;;10.93;6.00;;;;;28.10;96555.00;;;;8332842;28;20196;-60
2023/06/28 10:50:14;;;;;;;15.57;7.05;;;;;27.60;96559.00;;;;8331320;28;20201;-59
2023/06/28 10:54:18;;;;;;;45.15;19.27;;;;;27.20;96558.00;;;;8332038;28;20225;-60
2023/06/28 10:58:30;;;;;;;6.55;3.55;;;;;27.40;96553.00;;;;8333463;28;20622;-60
2023/06/28 11:02:53;;;;;;;4.97;2.53;;;;;27.20;96553.00;;;;8332633;28;20285;-60
2023/06/28 11:07:18;;;;;;;3.58;2.58;;;;;26.70;96552.00;;;;8331800;28;20185;-60
2023/06/28 11:11:35;;;;;;;3.05;1.90;;;;;26.70;96560.00;;;;8332926;28;20212;-59
2023/06/28 11:15:44;;;;;;;3.13;2.10;;;;;27.10;96554.00;;;;8313605;28;20264;-59
2023/06/28 11:19:47;;;;;;;1.88;1.73;;;;;27.20;96559.00;;;;8332969;28;20230;-59
2023/06/28 11:23:56;;;;;;;1.80;1.70;;;;;28.20;96548.00;;;;8332227;28;20197;-59
2023/06/28 11:27:59;;;;;;;2.67;2.17;;;;;28.00;96560.00;;;;8332681;28;20205;-59
2023/06/28 11:32:02;;;;;;;2.78;1.70;;;;;27.40;96557.00;;;;8332185;28;20653;-60
2023/06/28 11:36:13;;;;;;;4.03;1.70;;;;;26.80;96557.00;;;;8332362;28;20228;-59
2023/06/28 11:40:19;;;;;;;2.67;1.77;;;;;26.50;96557.00;;;;8331051;28;20539;-59
2023/06/28 11:44:22;;;;;;;2.97;1.80;;;;;26.20;96560.00;;;;8331628;28;20638;-59
2023/06/28 11:48:29;;;;;;;2.38;1.83;;;;;26.10;96557.00;;;;8327594;28;20201;-59
2023/06/28 11:52:38;;;;;;;4.03;2.05;;;;;26.20;96553.00;;;;8330548;28;20256;-60
2023/06/28 11:56:52;;;;;;;2.05;1.80;;;;;26.60;96557.00;;;;8330517;28;20209;-59
2023/06/28 12:00:55;;;;;;;2.33;1.80;;;;;27.50;96555.00;;;;8331553;28;20285;-59
2023/06/28 12:05:03;;;;;;;2.58;2.00;;;;;28.60;96544.00;;;;8330509;28;20232;-60
2023/06/28 12:09:26;;;;;;;2.35;2.00;;;;;28.70;96546.00;;;;8331070;28;20206;-60
2023/06/28 12:13:33;;;;;;;2.45;2.05;;;;;28.10;96549.00;;;;8330461;28;20216;-60
2023/06/28 12:17:45;;;;;;;3.38;1.80;;;;;27.20;96543.00;;;;8331105;28;20189;-60
2023/06/28 12:21:53;;;;;;;4.97;2.00;;;;;26.80;96547.00;;;;8330931;28;20205;-59
2023/06/28 12:26:00;;;;;;;2.00;1.90;;;;;26.50;96550.00;;;;8330355;28;20280;-60
2023/06/28 12:30:10;;;;;;;2.25;2.05;;;;;26.50;96551.00;;;;8330753;28;20196;-59
2023/06/28 12:34:14;;;;;;;5.65;2.35;;;;;26.90;96548.00;;;;8330307;28;20689;-60
2023/06/28 12:38:20;;;;;;;1.98;1.80;;;;;26.80;96543.00;;;;8331262;28;20635;-59
2023/06/28 12:42:26;;;;;;;2.15;1.60;;;;;26.80;96542.00;;;;8329406;28;20280;-60
2023/06/28 12:46:35;;;;;;;2.70;1.90;;;;;28.30;96535.00;;;;8330575;28;20219;-60
2023/06/28 12:50:40;;;;;;;4.97;2.08;;;;;29.40;96528.00;;;;8330037;28;20272;-62
2023/06/28 12:54:44;;;;;;;2.58;1.98;;;;;30.20;96531.00;;;;8332764;28;20257;-60
2023/06/28 12:58:48;;;;;;;4.10;1.88;;;;;29.90;96523.00;;;;8336195;28;20237;-59
2023/06/28 13:02:53;;;;;;;3.50;1.92;;;;;29.10;96522.00;;;;8336515;28;20300;-60
2023/06/28 13:06:57;;;;;;;3.85;1.90;;;;;28.70;96525.00;;;;8335741;28;20189;-60
2023/06/28 13:11:03;;;;;;;2.22;2.03;;;;;28.60;96527.00;;;;8336762;28;20189;-59
2023/06/28 13:15:07;;;;;;;5.32;2.08;;;;;28.20;96526.00;;;;8333319;28;20225;-59
2023/06/28 13:19:15;;;;;;;3.60;2.00;;;;;27.60;96529.00;;;;8335440;28;20177;-60
2023/06/28 13:23:19;;;;;;;1.67;1.58;;;;;27.40;96520.00;;;;8328506;28;20531;-60
2023/06/28 13:27:25;;;;;;;2.45;2.00;;;;;27.20;96528.00;;;;8333938;28;20197;-60
2023/06/28 13:31:28;;;;;;;4.15;2.15;;;;;27.00;96526.00;;;;8334626;28;20695;-59
2023/06/28 13:35:33;;;;;;;2.80;1.80;;;;;28.20;96515.00;;;;8334771;28;20225;-59
2023/06/28 13:39:39;;;;;;;4.20;1.80;;;;;29.70;96515.00;;;;8333000;28;20285;-59
2023/06/28 13:43:42;;;;;;;4.20;2.00;;;;;30.80;96511.00;;;;8334917;28;20292;-59
2023/06/28 13:47:45;;;;;;;2.17;1.92;;;;;31.60;96501.00;;;;8335892;28;20200;-59
2023/06/28 13:51:50;;;;;;;4.68;1.92;;;;;31.90;96510.00;;;;8335668;28;20535;-59
2023/06/28 13:55:53;;;;;;;7.35;2.30;;;;;32.60;96504.00;;;;8334804;28;20252;-59
2023/06/28 13:59:56;;;;;;;5.05;2.22;;;;;33.70;96485.00;;;;8335674;28;20213;-59
2023/06/28 14:04:01;;;;;;;2.92;1.95;;;;;33.60;96485.00;;;;8334958;28;20638;-60
2023/06/28 14:08:05;;;;;;;2.10;1.90;;;;;33.80;96483.00;;;;8332328;28;20232;-60
2023/06/28 14:12:12;;;;;;;1.88;1.77;;;;;34.30;96478.00;;;;8334425;28;20193;-60
2023/06/28 14:16:15;;;;;;;2.78;1.80;;;;;33.10;96480.00;;;;8334498;28;20260;-59
2023/06/28 14:20:19;;;;;;;1.70;1.60;;;;;32.80;96484.00;;;;8312930;28;20240;-59
2023/06/28 14:24:23;;;;;;;1.63;1.52;;;;;32.30;96477.00;;;;8317136;28;20554;-60
2023/06/28 14:28:30;;;;;;;2.20;2.00;;;;;32.10;96486.00;;;;8334969;28;20196;-59
2023/06/28 14:32:33;;;;;;;4.55;1.73;;;;;31.80;96471.00;;;;8334537;28;20581;-59
2023/06/28 14:36:40;;;;;;;1.95;1.70;;;;;30.90;96468.00;;;;8334423;28;20670;-59
2023/06/28 14:40:47;;;;;;;3.95;1.73;;;;;30.10;96468.00;;;;8333848;28;20197;-59
2023/06/28 14:44:53;;;;;;;4.15;2.00;;;;;30.10;96460.00;;;;8316296;28;20229;-59
2023/06/28 14:49:01;;;;;;;3.95;1.80;;;;;30.40;96463.00;;;;8334130;28;20192;-59
2023/06/28 14:53:04;;;;;;;3.33;1.80;;;;;29.90;96467.00;;;;8333608;28;20236;-59
2023/06/28 14:57:11;;;;;;;6.63;2.10;;;;;29.60;96468.00;;;;8331719;28;20240;-59
2023/06/28 15:01:15;;;;;;;2.47;2.28;;;;;29.20;96469.00;;;;8332164;28;20272;-59
2023/06/28 15:05:18;;;;;;;2.70;1.88;;;;;29.50;96465.00;;;;8330985;28;20225;-59
2023/06/28 15:09:21;;;;;;;3.33;1.80;;;;;29.80;96463.00;;;;8331319;28;20531;-59
2023/06/28 15:13:31;;;;;;;2.53;1.90;;;;;30.30;96470.00;;;;8330097;28;20300;-59
2023/06/28 15:17:34;;;;;;;3.28;1.92;;;;;30.70;96470.00;;;;8330332;28;20283;-59
2023/06/28 15:21:41;;;;;;;4.80;1.88;;;;;31.40;96466.00;;;;8330699;28;20200;-59
2023/06/28 15:25:44;;;;;;;3.95;2.13;;;;;31.20;96469.00;;;;8332403;28;20232;-60
2023/06/28 15:29:52;;;;;;;2.70;1.85;;;;;31.70;96458.00;;;;8330976;28;20193;-60
2023/06/28 15:33:57;;;;;;;2.45;1.80;;;;;32.40;96473.00;;;;8329514;28;20266;-59
2023/06/28 15:38:01;;;;;;;2.15;1.90;;;;;32.40;96461.00;;;;8330765;28;20655;-60
2023/06/28 15:42:04;;;;;;;2.05;1.85;;;;;32.50;96458.00;;;;8331662;28;20639;-59
2023/06/28 15:46:09;;;;;;;5.25;2.15;;;;;32.80;96467.00;;;;8329743;28;20208;-59
2023/06/28 15:50:14;;;;;;;3.13;2.10;;;;;32.90;96458.00;;;;8331387;28;20240;-59
2023/06/28 15:54:17;;;;;;;2.50;1.73;;;;;33.10;96455.00;;;;8331026;28;20260;-60
2023/06/28 15:58:21;;;;;;;2.55;1.52;;;;;33.10;96452.00;;;;8330150;28;20205;-60
2023/06/28 16:02:30;;;;;;;3.80;1.83;;;;;33.20;96454.00;;;;8327241;28;20615;-59
2023/06/28 16:06:37;;;;;;;3.03;1.70;;;;;33.10;96455.00;;;;8330314;28;20193;-59
2023/06/28 16:10:43;;;;;;;6.10;1.73;;;;;32.70;96452.00;;;;8332278;28;20201;-60
2023/06/28 16:14:46;;;;;;;1.90;1.80;;;;;32.70;96455.00;;;;8330970;28;20228;-60
2023/06/28 16:18:52;;;;;;;6.05;2.10;;;;;32.80;96458.00;;;;8330918;28;20224;-60
2023/06/28 16:22:59;;;;;;;3.53;1.77;;;;;32.90;96455.00;;;;8330696;28;20233;-60
2023/06/28 16:27:02;;;;;;;1.73;1.60;;;;;32.20;96461.00;;;;8330425;28;20355;-60
2023/06/28 16:31:05;;;;;;;4.50;1.70;;;;;31.40;96456.00;;;;8333222;28;20649;-60
2023/06/28 16:35:11;;;;;;;2.97;1.80;;;;;31.30;96461.00;;;;8334954;28;20229;-59
2023/06/28 16:39:14;;;;;;;3.65;1.80;;;;;31.70;96463.00;;;;8335585;28;20197;-59
2023/06/28 16:43:18;;;;;;;2.05;1.95;;;;;32.30;96457.00;;;;8335327;28;20219;-60
2023/06/28 16:47:37;;;;;;;2.83;1.90;;;;;32.50;96454.00;;;;8334545;28;20185;-60
2023/06/28 16:51:41;;;;;;;5.28;2.10;;;;;33.00;96452.00;;;;8335570;28;20240;-60
2023/06/28 16:55:47;;;;;;;3.20;1.90;;;;;33.20;96465.00;;;;8337419;28;20662;-60
2023/06/28 16:59:50;;;;;;;1.85;1.75;;;;;32.90;96465.00;;;;8337138;28;20189;-60
2023/06/28 17:03:54;;;;;;;4.88;1.92;;;;;33.00;96468.00;;;;8336210;28;20209;-60
2023/06/28 17:07:58;;;;;;;2.88;2.00;;;;;33.30;96462.00;;;;8337212;28;20216;-60
2023/06/28 17:12:02;;;;;;;2.47;2.05;;;;;33.20;96468.00;;;;8336222;28;20247;-60
2023/06/28 17:16:10;;;;;;;2.28;1.92;;;;;32.40;96461.00;;;;8336970;28;20209;-62
2023/06/28 17:20:15;;;;;;;2.20;1.60;;;;;32.60;96472.00;;;;8335996;28;20239;-62
2023/06/28 17:24:21;;;;;;;4.88;1.88;;;;;33.00;96460.00;;;;8336739;28;20186;-61
2023/06/28 17:28:25;;;;;;;1.83;1.73;;;;;33.20;96471.00;;;;8333606;28;20204;-61
2023/06/28 17:32:31;;;;;;;3.70;2.30;;;;;33.40;96468.00;;;;8334402;28;20220;-61
2023/06/28 17:36:35;;;;;;;2.53;2.05;;;;;33.50;96462.00;;;;8336453;28;20261;-61
2023/06/28 17:40:58;;;;;;;2.15;1.80;;;;;33.60;96474.00;;;;8333296;28;20202;-60
2023/06/28 17:45:06;;;;;;;2.00;1.77;;;;;33.50;96468.00;;;;8335924;28;20199;-60
2023/06/28 17:49:15;;;;;;;4.10;2.28;;;;;33.10;96464.00;;;;8335850;28;20570;-60
2023/06/28 17:53:21;;;;;;;2.83;2.03;;;;;32.90;96470.00;;;;8317792;28;20309;-61
2023/06/28 17:57:26;;;;;;;3.00;1.95;;;;;32.60;96467.00;;;;8331590;28;20647;-60
2023/06/28 18:01:31;;;;;;;3.85;1.83;;;;;31.70;96470.00;;;;8335399;28;20657;-60
2023/06/28 18:05:35;;;;;;;2.63;2.13;;;;;30.70;96470.00;;;;8334321;28;20213;-60
2023/06/28 18:09:44;;;;;;;3.45;1.90;;;;;29.90;96471.00;;;;8333826;28;20284;-59
2023/06/28 18:13:58;;;;;;;3.88;1.55;;;;;29.20;96477.00;;;;8334549;28;20273;-59
2023/06/28 18:18:05;;;;;;;3.42;1.98;;;;;28.50;96471.00;;;;8334945;28;20700;-59
2023/06/28 18:22:12;;;;;;;1.98;1.83;;;;;28.00;96474.00;;;;8333534;28;20193;-59
2023/06/28 18:26:15;;;;;;;2.67;2.08;;;;;27.30;96488.00;;;;8333945;28;20292;-59
2023/06/28 18:30:20;;;;;;;2.22;1.90;;;;;26.70;96485.00;;;;8333565;28;20237;-59
2023/06/28 18:34:23;;;;;;;3.25;2.00;;;;;26.20;96490.00;;;;8332571;28;20288;-59
2023/06/28 18:38:28;;;;;;;4.05;2.00;;;;;25.80;96484.00;;;;8333515;28;20224;-58
2023/06/28 18:42:36;;;;;;;3.05;2.13;;;;;25.40;96485.00;;;;8333105;28;20198;-58
2023/06/28 18:46:40;;;;;;;2.80;2.13;;;;;25.00;96478.00;;;;8333037;28;20280;-59
2023/06/28 18:50:48;;;;;;;3.10;2.20;;;;;24.40;96478.00;;;;8333796;28;20193;-59
2023/06/28 18:54:54;;;;;;;5.18;2.13;;;;;23.80;96487.00;;;;8333034;28;20589;-58
2023/06/28 18:58:57;;;;;;;8.63;2.30;;;;;23.10;96479.00;;;;8334128;28;20201;-58
2023/06/28 19:03:02;;;;;;;10.05;2.58;;;;;22.60;96484.00;;;;8332890;28;20213;-58
2023/06/28 19:07:08;;;;;;;6.93;2.53;;;;;22.10;96477.00;;;;8331628;28;20228;-58
2023/06/28 19:11:14;;;;;;;3.03;2.40;;;;;21.60;96478.00;;;;8332780;28;20643;-58
2023/06/28 19:15:18;;;;;;;2.42;2.25;;;;;21.20;96487.00;;;;8332067;28;20263;-58
2023/06/28 19:19:26;;;;;;;2.50;2.08;;;;;20.70;96477.00;;;;8332540;28;20232;-58
2023/06/28 19:23:29;;;;;;;4.30;2.47;;;;;20.30;96486.00;;;;8329942;28;20288;-58
2023/06/28 19:27:32;;;;;;;4.25;2.20;;;;;20.10;96496.00;;;;8331952;28;20535;-58
2023/06/28 19:31:35;;;;;;;8.65;2.35;;;;;20.00;96494.00;;;;8331221;28;20201;-58
2023/06/28 19:35:41;;;;;;;3.80;2.20;;;;;20.00;96504.00;;;;8331511;28;20220;-58
2023/06/28 19:39:46;;;;;;;3.20;2.53;;;;;19.80;96500.00;;;;8332371;28;20182;-58
2023/06/28 19:43:50;;;;;;;5.22;2.47;;;;;19.60;96507.00;;;;8331699;28;20762;-58
2023/06/28 19:47:56;;;;;;;4.10;2.15;;;;;19.30;96512.00;;;;8332074;28;20235;-58
2023/06/28 19:52:00;;;;;;;3.97;2.60;;;;;19.00;96515.00;;;;8331704;28;20193;-58
2023/06/28 19:56:11;;;;;;;5.55;3.08;;;;;18.80;96514.00;;;;8331924;28;20733;-58
2023/06/28 20:00:17;;;;;;;7.13;2.53;;;;;18.50;96508.00;;;;8331387;28;20200;-58
2023/06/28 20:04:20;;;;;;;3.42;2.20;;;;;18.30;96515.00;;;;8330112;28;20221;-58
2023/06/28 20:08:31;;;;;;;4.40;2.42;;;;;18.00;96521.00;;;;8331926;28;20255;-58
2023/06/28 20:12:35;;;;;;;6.20;2.53;;;;;17.80;96526.00;;;;8330599;28;20240;-58
2023/06/28 20:16:41;;;;;;;4.43;2.55;;;;;17.70;96524.00;;;;8330383;28;20753;-58
2023/06/28 20:20:44;;;;;;;2.97;2.67;;;;;17.60;96518.00;;;;8330823;28;20205;-58
2023/06/28 20:24:49;;;;;;;3.17;2.10;;;;;17.50;96521.00;;;;8331473;28;20264;-58
2023/06/28 20:28:52;;;;;;;33.10;3.92;;;;;17.40;96519.00;;;;8331277;28;20240;-58
2023/06/28 20:32:59;;;;;;;3.90;2.50;;;;;17.30;96516.00;;;;8331372;28;20280;-58
2023/06/28 20:37:03;;;;;;;3.53;2.70;;;;;17.20;96522.00;;;;8331548;28;20267;-58
2023/06/28 20:41:09;;;;;;;4.68;2.47;;;;;17.00;96522.00;;;;8330909;28;20255;-57
2023/06/28 20:50:30;;;;;;;2.50;2.30;;;;;16.60;96522.00;;;;8325819;28;20579;-59
2023/06/28 20:54:39;;;;;;;7.53;2.50;;;;;16.50;96519.00;;;;8330229;28;20190;-60
2023/06/28 20:58:46;;;;;;;3.47;2.60;;;;;16.30;96521.00;;;;8331539;28;20225;-60
2023/06/28 21:02:51;;;;;;;3.67;2.90;;;;;16.20;96527.00;;;;8330809;28;20263;-60
2023/06/28 21:07:01;;;;;;;3.92;3.10;;;;;16.10;96525.00;;;;8330362;28;20228;-60
2023/06/28 21:11:04;;;;;;;4.15;2.53;;;;;15.90;96532.00;;;;8329848;28;20189;-59
2023/06/28 21:15:11;;;;;;;5.75;2.80;;;;;15.80;96525.00;;;;8331831;28;20197;-59
2023/06/28 21:19:16;;;;;;;5.90;3.20;;;;;15.70;96526.00;;;;8336958;28;20558;-59
2023/06/28 21:23:19;;;;;;;8.05;3.05;;;;;15.60;96521.00;;;;8335620;28;20229;-59
2023/06/28 21:27:22;;;;;;;5.63;3.15;;;;;15.40;96519.00;;;;8336338;28;20280;-59